sensor_id;sensor_type;location;lat;lon;timestamp;P1;durP1;ratioP1;P2;durP2;ratioP2
22378;SDS011;11357;49.990;7.370;2024-03-17T00:02:22;913.50;;;301.97;;
22378;SDS011;11357;49.990;7.370;2024-03-17T00:04:48;1017.80;;;312.90;;
22378;SDS011;11357;49.990;7.370;2024-03-17T00:07:13;1098.77;;;334.47;;
22378;SDS011;11357;49.990;7.370;2024-03-17T00:09:39;1132.33;;;335.77;;
22378;SDS011;11357;49.990;7.370;2024-03-17T00:12:06;1234.63;;;354.37;;
22378;SDS011;11357;49.990;7.370;2024-03-17T00:14:32;1309.17;;;353.73;;
22378;SDS011;11357;49.990;7.370;2024-03-17T00:16:59;1198.33;;;343.47;;
22378;SDS011;11357;49.990;7.370;2024-03-17T00:19:26;1260.03;;;318.80;;
22378;SDS011;11357;49.990;7.370;2024-03-17T00:21:52;1264.80;;;301.53;;
22378;SDS011;11357;49.990;7.370;2024-03-17T00:24:18;1250.07;;;289.87;;
22378;SDS011;11357;49.990;7.370;2024-03-17T00:26:45;980.07;;;203.73;;
22378;SDS011;11357;49.990;7.370;2024-03-17T00:29:11;1192.57;;;244.30;;
22378;SDS011;11357;49.990;7.370;2024-03-17T00:31:37;1134.97;;;264.20;;
22378;SDS011;11357;49.990;7.370;2024-03-17T00:34:02;1723.53;;;757.53;;
22378;SDS011;11357;49.990;7.370;2024-03-17T00:36:29;1711.03;;;754.00;;
22378;SDS011;11357;49.990;7.370;2024-03-17T00:38:55;1715.07;;;753.87;;
22378;SDS011;11357;49.990;7.370;2024-03-17T00:41:21;1156.60;;;258.83;;
22378;SDS011;11357;49.990;7.370;2024-03-17T00:43:48;1111.47;;;274.10;;
22378;SDS011;11357;49.990;7.370;2024-03-17T00:46:17;1737.73;;;761.33;;
22378;SDS011;11357;49.990;7.370;2024-03-17T00:48:47;1015.80;;;205.17;;
22378;SDS011;11357;49.990;7.370;2024-03-17T00:51:14;1026.20;;;224.33;;
22378;SDS011;11357;49.990;7.370;2024-03-17T00:53:40;1134.43;;;264.67;;
22378;SDS011;11357;49.990;7.370;2024-03-17T00:56:06;1209.03;;;267.80;;
22378;SDS011;11357;49.990;7.370;2024-03-17T00:58:31;1163.83;;;269.97;;
22378;SDS011;11357;49.990;7.370;2024-03-17T01:00:57;1221.13;;;293.50;;
22378;SDS011;11357;49.990;7.370;2024-03-17T01:03:23;1191.13;;;254.93;;
22378;SDS011;11357;49.990;7.370;2024-03-17T01:05:49;1694.93;;;769.53;;
22378;SDS011;11357;49.990;7.370;2024-03-17T01:08:17;1150.07;;;267.90;;
22378;SDS011;11357;49.990;7.370;2024-03-17T01:10:44;719.90;;;190.50;;
22378;SDS011;11357;49.990;7.370;2024-03-17T01:13:12;1276.60;;;276.20;;
22378;SDS011;11357;49.990;7.370;2024-03-17T01:15:39;1127.10;;;281.50;;
22378;SDS011;11357;49.990;7.370;2024-03-17T01:18:05;1089.50;;;311.57;;
22378;SDS011;11357;49.990;7.370;2024-03-17T01:20:31;1244.03;;;395.47;;
22378;SDS011;11357;49.990;7.370;2024-03-17T01:22:59;1291.10;;;330.70;;
22378;SDS011;11357;49.990;7.370;2024-03-17T01:25:25;1346.70;;;374.97;;
22378;SDS011;11357;49.990;7.370;2024-03-17T01:27:51;1202.97;;;330.93;;
22378;SDS011;11357;49.990;7.370;2024-03-17T01:30:17;1131.60;;;321.37;;
22378;SDS011;11357;49.990;7.370;2024-03-17T01:32:44;1164.70;;;338.23;;
22378;SDS011;11357;49.990;7.370;2024-03-17T01:35:14;1036.97;;;292.77;;
22378;SDS011;11357;49.990;7.370;2024-03-17T01:37:40;937.67;;;268.03;;
22378;SDS011;11357;49.990;7.370;2024-03-17T01:40:06;899.27;;;271.87;;
22378;SDS011;11357;49.990;7.370;2024-03-17T01:42:38;1216.07;;;339.20;;
22378;SDS011;11357;49.990;7.370;2024-03-17T01:47:54;1231.00;;;339.27;;
22378;SDS011;11357;49.990;7.370;2024-03-17T01:50:23;1139.47;;;340.93;;
22378;SDS011;11357;49.990;7.370;2024-03-17T01:52:53;1254.03;;;351.87;;
22378;SDS011;11357;49.990;7.370;2024-03-17T01:55:21;1238.63;;;311.77;;
22378;SDS011;11357;49.990;7.370;2024-03-17T01:57:48;1342.50;;;310.67;;
22378;SDS011;11357;49.990;7.370;2024-03-17T02:00:15;1101.10;;;248.90;;
22378;SDS011;11357;49.990;7.370;2024-03-17T02:02:41;1151.60;;;245.93;;
22378;SDS011;11357;49.990;7.370;2024-03-17T02:05:06;865.30;;;180.53;;
22378;SDS011;11357;49.990;7.370;2024-03-17T02:07:32;1695.17;;;736.43;;
22378;SDS011;11357;49.990;7.370;2024-03-17T02:09:58;1713.40;;;746.10;;
22378;SDS011;11357;49.990;7.370;2024-03-17T02:12:24;1758.47;;;766.17;;
22378;SDS011;11357;49.990;7.370;2024-03-17T02:14:50;875.20;;;161.13;;
22378;SDS011;11357;49.990;7.370;2024-03-17T02:17:16;1713.23;;;748.90;;
22378;SDS011;11357;49.990;7.370;2024-03-17T02:19:42;1606.87;;;710.43;;
22378;SDS011;11357;49.990;7.370;2024-03-17T02:22:13;1999.90;;;999.90;;
22378;SDS011;11357;49.990;7.370;2024-03-17T02:24:41;1999.90;;;999.90;;
22378;SDS011;11357;49.990;7.370;2024-03-17T02:27:07;1999.90;;;999.90;;
22378;SDS011;11357;49.990;7.370;2024-03-17T02:29:34;1999.90;;;999.90;;
22378;SDS011;11357;49.990;7.370;2024-03-17T02:32:02;1999.90;;;999.90;;
22378;SDS011;11357;49.990;7.370;2024-03-17T02:34:32;1999.90;;;999.90;;
22378;SDS011;11357;49.990;7.370;2024-03-17T02:37:02;1999.90;;;999.90;;
22378;SDS011;11357;49.990;7.370;2024-03-17T02:39:29;1999.90;;;999.90;;
22378;SDS011;11357;49.990;7.370;2024-03-17T02:42:05;1999.90;;;999.90;;
22378;SDS011;11357;49.990;7.370;2024-03-17T02:44:32;1999.90;;;999.90;;
22378;SDS011;11357;49.990;7.370;2024-03-17T02:46:59;1999.90;;;999.90;;
22378;SDS011;11357;49.990;7.370;2024-03-17T02:49:26;1999.90;;;999.90;;
22378;SDS011;11357;49.990;7.370;2024-03-17T02:51:53;1999.90;;;999.90;;
22378;SDS011;11357;49.990;7.370;2024-03-17T02:54:20;1999.90;;;999.90;;
22378;SDS011;11357;49.990;7.370;2024-03-17T02:56:46;1999.90;;;999.90;;
22378;SDS011;11357;49.990;7.370;2024-03-17T02:59:12;1999.90;;;999.90;;
22378;SDS011;11357;49.990;7.370;2024-03-17T03:01:38;1999.90;;;999.90;;
22378;SDS011;11357;49.990;7.370;2024-03-17T03:04:04;1999.90;;;999.90;;
22378;SDS011;11357;49.990;7.370;2024-03-17T03:06:30;1999.90;;;999.90;;
22378;SDS011;11357;49.990;7.370;2024-03-17T03:08:56;1999.90;;;999.90;;
22378;SDS011;11357;49.990;7.370;2024-03-17T03:11:22;1999.90;;;999.90;;
22378;SDS011;11357;49.990;7.370;2024-03-17T03:13:48;1999.90;;;999.90;;
22378;SDS011;11357;49.990;7.370;2024-03-17T03:16:13;1999.90;;;999.90;;
22378;SDS011;11357;49.990;7.370;2024-03-17T03:18:40;1999.90;;;999.90;;
22378;SDS011;11357;49.990;7.370;2024-03-17T03:21:06;1999.90;;;999.90;;
22378;SDS011;11357;49.990;7.370;2024-03-17T03:23:32;1999.90;;;999.90;;
22378;SDS011;11357;49.990;7.370;2024-03-17T03:25:58;1999.90;;;999.90;;
22378;SDS011;11357;49.990;7.370;2024-03-17T03:28:25;1999.90;;;999.90;;
22378;SDS011;11357;49.990;7.370;2024-03-17T03:30:51;1530.90;;;702.27;;
22378;SDS011;11357;49.990;7.370;2024-03-17T03:33:20;1720.40;;;749.63;;
22378;SDS011;11357;49.990;7.370;2024-03-17T03:35:47;1999.90;;;999.90;;
22378;SDS011;11357;49.990;7.370;2024-03-17T03:38:13;1170.70;;;254.43;;
22378;SDS011;11357;49.990;7.370;2024-03-17T03:40:40;1263.57;;;344.40;;
22378;SDS011;11357;49.990;7.370;2024-03-17T03:43:07;1035.63;;;347.80;;
22378;SDS011;11357;49.990;7.370;2024-03-17T03:45:33;1299.17;;;395.20;;
22378;SDS011;11357;49.990;7.370;2024-03-17T03:48:00;963.10;;;268.67;;
22378;SDS011;11357;49.990;7.370;2024-03-17T03:50:26;1141.70;;;330.50;;
22378;SDS011;11357;49.990;7.370;2024-03-17T03:52:52;1183.90;;;336.87;;
22378;SDS011;11357;49.990;7.370;2024-03-17T03:55:18;992.67;;;292.53;;
22378;SDS011;11357;49.990;7.370;2024-03-17T03:57:44;981.90;;;308.23;;
22378;SDS011;11357;49.990;7.370;2024-03-17T04:00:15;979.87;;;309.87;;
22378;SDS011;11357;49.990;7.370;2024-03-17T04:02:44;914.40;;;289.23;;
22378;SDS011;11357;49.990;7.370;2024-03-17T04:05:09;1090.07;;;327.73;;
22378;SDS011;11357;49.990;7.370;2024-03-17T04:07:38;1175.43;;;335.63;;
22378;SDS011;11357;49.990;7.370;2024-03-17T04:10:05;1682.83;;;439.87;;
22378;SDS011;11357;49.990;7.370;2024-03-17T04:12:31;982.47;;;289.43;;
22378;SDS011;11357;49.990;7.370;2024-03-17T04:14:57;1084.73;;;301.37;;
22378;SDS011;11357;49.990;7.370;2024-03-17T04:17:24;869.57;;;314.53;;
22378;SDS011;11357;49.990;7.370;2024-03-17T04:19:50;916.07;;;297.37;;
22378;SDS011;11357;49.990;7.370;2024-03-17T04:22:17;984.37;;;331.40;;
22378;SDS011;11357;49.990;7.370;2024-03-17T04:24:43;1103.00;;;348.83;;
22378;SDS011;11357;49.990;7.370;2024-03-17T04:27:13;1315.20;;;388.40;;
22378;SDS011;11357;49.990;7.370;2024-03-17T04:29:39;1451.73;;;401.17;;
22378;SDS011;11357;49.990;7.370;2024-03-17T04:32:05;1366.93;;;392.00;;
22378;SDS011;11357;49.990;7.370;2024-03-17T04:34:31;1368.07;;;321.67;;
22378;SDS011;11357;49.990;7.370;2024-03-17T04:36:58;707.93;;;128.07;;
22378;SDS011;11357;49.990;7.370;2024-03-17T04:39:24;1621.83;;;719.47;;
22378;SDS011;11357;49.990;7.370;2024-03-17T04:41:50;1677.93;;;737.43;;
22378;SDS011;11357;49.990;7.370;2024-03-17T04:44:16;1693.17;;;741.30;;
22378;SDS011;11357;49.990;7.370;2024-03-17T04:46:42;1643.87;;;730.77;;
22378;SDS011;11357;49.990;7.370;2024-03-17T04:49:08;1712.83;;;749.47;;
22378;SDS011;11357;49.990;7.370;2024-03-17T04:51:34;1185.43;;;306.87;;
22378;SDS011;11357;49.990;7.370;2024-03-17T04:54:00;1072.07;;;225.70;;
22378;SDS011;11357;49.990;7.370;2024-03-17T04:56:29;1516.40;;;329.97;;
22378;SDS011;11357;49.990;7.370;2024-03-17T04:58:54;1473.77;;;340.33;;
22378;SDS011;11357;49.990;7.370;2024-03-17T05:01:21;1322.40;;;298.17;;
22378;SDS011;11357;49.990;7.370;2024-03-17T05:03:46;1387.90;;;350.23;;
22378;SDS011;11357;49.990;7.370;2024-03-17T05:06:12;1712.87;;;760.93;;
22378;SDS011;11357;49.990;7.370;2024-03-17T05:08:37;1676.90;;;735.80;;
22378;SDS011;11357;49.990;7.370;2024-03-17T05:11:04;1999.90;;;999.90;;
22378;SDS011;11357;49.990;7.370;2024-03-17T05:13:35;1999.90;;;999.90;;
22378;SDS011;11357;49.990;7.370;2024-03-17T05:16:03;1999.90;;;999.90;;
22378;SDS011;11357;49.990;7.370;2024-03-17T05:18:29;1593.00;;;712.47;;
22378;SDS011;11357;49.990;7.370;2024-03-17T05:21:04;1999.90;;;999.90;;
22378;SDS011;11357;49.990;7.370;2024-03-17T05:23:31;1999.90;;;999.90;;
22378;SDS011;11357;49.990;7.370;2024-03-17T05:25:58;1999.90;;;999.90;;
22378;SDS011;11357;49.990;7.370;2024-03-17T05:28:25;1999.90;;;999.90;;
22378;SDS011;11357;49.990;7.370;2024-03-17T05:30:52;1999.90;;;999.90;;
22378;SDS011;11357;49.990;7.370;2024-03-17T05:33:18;1999.90;;;999.90;;
22378;SDS011;11357;49.990;7.370;2024-03-17T05:38:28;1999.90;;;999.90;;
22378;SDS011;11357;49.990;7.370;2024-03-17T05:40:59;1999.90;;;999.90;;
22378;SDS011;11357;49.990;7.370;2024-03-17T05:43:26;1999.90;;;999.90;;
22378;SDS011;11357;49.990;7.370;2024-03-17T05:45:53;1999.90;;;999.90;;
22378;SDS011;11357;49.990;7.370;2024-03-17T05:48:21;1999.90;;;999.90;;
22378;SDS011;11357;49.990;7.370;2024-03-17T05:50:47;1999.90;;;999.90;;
22378;SDS011;11357;49.990;7.370;2024-03-17T05:56:10;1999.90;;;999.90;;
22378;SDS011;11357;49.990;7.370;2024-03-17T05:58:40;1999.90;;;999.90;;
22378;SDS011;11357;49.990;7.370;2024-03-17T06:01:06;1999.90;;;999.90;;
22378;SDS011;11357;49.990;7.370;2024-03-17T06:06:16;1999.90;;;999.90;;
22378;SDS011;11357;49.990;7.370;2024-03-17T06:08:42;1999.90;;;999.90;;
22378;SDS011;11357;49.990;7.370;2024-03-17T06:11:08;1999.90;;;999.90;;
22378;SDS011;11357;49.990;7.370;2024-03-17T06:18:44;1999.90;;;999.90;;
22378;SDS011;11357;49.990;7.370;2024-03-17T06:21:11;1999.90;;;999.90;;
22378;SDS011;11357;49.990;7.370;2024-03-17T06:28:53;1999.90;;;999.90;;
22378;SDS011;11357;49.990;7.370;2024-03-17T06:31:19;1999.90;;;999.90;;
22378;SDS011;11357;49.990;7.370;2024-03-17T06:36:23;1999.90;;;999.90;;
22378;SDS011;11357;49.990;7.370;2024-03-17T06:38:49;1999.90;;;999.90;;
22378;SDS011;11357;49.990;7.370;2024-03-17T06:41:14;1632.33;;;722.63;;
22378;SDS011;11357;49.990;7.370;2024-03-17T06:43:46;1685.53;;;738.80;;
22378;SDS011;11357;49.990;7.370;2024-03-17T06:46:12;1665.13;;;732.80;;
22378;SDS011;11357;49.990;7.370;2024-03-17T06:48:37;1768.23;;;751.27;;
22378;SDS011;11357;49.990;7.370;2024-03-17T06:51:03;1599.60;;;721.40;;
22378;SDS011;11357;49.990;7.370;2024-03-17T06:53:51;1999.90;;;999.90;;
22378;SDS011;11357;49.990;7.370;2024-03-17T06:56:16;1999.90;;;999.90;;
22378;SDS011;11357;49.990;7.370;2024-03-17T06:58:42;1660.70;;;728.93;;
22378;SDS011;11357;49.990;7.370;2024-03-17T07:01:07;1781.17;;;758.80;;
22378;SDS011;11357;49.990;7.370;2024-03-17T07:03:40;1736.67;;;748.43;;
22378;SDS011;11357;49.990;7.370;2024-03-17T07:06:05;1274.17;;;281.63;;
22378;SDS011;11357;49.990;7.370;2024-03-17T07:08:33;1561.20;;;378.97;;
22378;SDS011;11357;49.990;7.370;2024-03-17T07:10:59;1238.40;;;385.37;;
22378;SDS011;11357;49.990;7.370;2024-03-17T07:31:32;1382.27;;;369.03;;
22378;SDS011;11357;49.990;7.370;2024-03-17T07:33:58;1586.23;;;376.07;;
22378;SDS011;11357;49.990;7.370;2024-03-17T07:36:24;1333.20;;;331.07;;
22378;SDS011;11357;49.990;7.370;2024-03-17T07:38:49;1367.03;;;262.20;;
22378;SDS011;11357;49.990;7.370;2024-03-17T07:41:16;1204.77;;;217.57;;
22378;SDS011;11357;49.990;7.370;2024-03-17T07:51:33;1812.17;;;759.50;;
22378;SDS011;11357;49.990;7.370;2024-03-17T07:59:16;1308.23;;;268.33;;
22378;SDS011;11357;49.990;7.370;2024-03-17T08:01:43;1275.20;;;264.20;;
22378;SDS011;11357;49.990;7.370;2024-03-17T08:04:09;1492.50;;;363.10;;
22378;SDS011;11357;49.990;7.370;2024-03-17T08:06:36;1459.30;;;385.47;;
22378;SDS011;11357;49.990;7.370;2024-03-17T08:09:09;1520.47;;;378.90;;
22378;SDS011;11357;49.990;7.370;2024-03-17T08:11:35;1312.00;;;346.40;;
22378;SDS011;11357;49.990;7.370;2024-03-17T08:14:07;1658.90;;;334.67;;
22378;SDS011;11357;49.990;7.370;2024-03-17T08:16:33;1359.47;;;360.13;;
22378;SDS011;11357;49.990;7.370;2024-03-17T08:18:59;1333.93;;;312.43;;
22378;SDS011;11357;49.990;7.370;2024-03-17T08:21:24;1395.37;;;327.03;;
22378;SDS011;11357;49.990;7.370;2024-03-17T08:23:52;1527.33;;;365.00;;
22378;SDS011;11357;49.990;7.370;2024-03-17T08:26:17;1575.40;;;363.60;;
22378;SDS011;11357;49.990;7.370;2024-03-17T08:28:43;1255.30;;;320.07;;
22378;SDS011;11357;49.990;7.370;2024-03-17T08:31:09;1206.77;;;311.70;;
22378;SDS011;11357;49.990;7.370;2024-03-17T08:54:18;1999.90;;;999.90;;
22378;SDS011;11357;49.990;7.370;2024-03-17T08:56:44;1999.90;;;999.90;;
22378;SDS011;11357;49.990;7.370;2024-03-17T08:59:09;1999.90;;;999.90;;
22378;SDS011;11357;49.990;7.370;2024-03-17T09:01:37;1999.90;;;999.90;;
22378;SDS011;11357;49.990;7.370;2024-03-17T09:04:18;1999.90;;;999.90;;
22378;SDS011;11357;49.990;7.370;2024-03-17T09:06:43;1999.90;;;999.90;;
22378;SDS011;11357;49.990;7.370;2024-03-17T09:09:09;1999.90;;;999.90;;
22378;SDS011;11357;49.990;7.370;2024-03-17T09:11:35;1999.90;;;999.90;;
22378;SDS011;11357;49.990;7.370;2024-03-17T09:16:36;1999.90;;;999.90;;
22378;SDS011;11357;49.990;7.370;2024-03-17T09:19:02;1999.90;;;999.90;;
22378;SDS011;11357;49.990;7.370;2024-03-17T09:21:28;1999.90;;;999.90;;
22378;SDS011;11357;49.990;7.370;2024-03-17T09:26:35;1999.90;;;999.90;;
22378;SDS011;11357;49.990;7.370;2024-03-17T09:29:01;396.77;;;337.53;;
22378;SDS011;11357;49.990;7.370;2024-03-17T09:31:26;1999.90;;;831.73;;
22378;SDS011;11357;49.990;7.370;2024-03-17T09:33:52;1999.90;;;869.33;;
22378;SDS011;11357;49.990;7.370;2024-03-17T09:36:18;1609.73;;;620.40;;
22378;SDS011;11357;49.990;7.370;2024-03-17T09:38:44;1999.90;;;814.43;;
22378;SDS011;11357;49.990;7.370;2024-03-17T09:41:18;1908.57;;;693.80;;
22378;SDS011;11357;49.990;7.370;2024-03-17T09:48:54;64.50;;;60.43;;
22378;SDS011;11357;49.990;7.370;2024-03-17T09:51:21;40.77;;;38.13;;
22378;SDS011;11357;49.990;7.370;2024-03-17T11:05:46;32.33;;;7.57;;
22378;SDS011;11357;49.990;7.370;2024-03-17T11:08:15;9.57;;;6.50;;
22378;SDS011;11357;49.990;7.370;2024-03-17T11:10:48;13.50;;;9.70;;
22378;SDS011;11357;49.990;7.370;2024-03-17T11:40:22;9.43;;;8.53;;
22378;SDS011;11357;49.990;7.370;2024-03-17T11:47:59;12.10;;;11.10;;
22378;SDS011;11357;49.990;7.370;2024-03-17T11:50:25;9.83;;;8.60;;
22378;SDS011;11357;49.990;7.370;2024-03-17T12:03:31;15.80;;;14.00;;
22378;SDS011;11357;49.990;7.370;2024-03-17T12:05:57;9.77;;;7.50;;
22378;SDS011;11357;49.990;7.370;2024-03-17T12:08:23;21.13;;;19.40;;
22378;SDS011;11357;49.990;7.370;2024-03-17T12:10:48;13.17;;;12.00;;
22378;SDS011;11357;49.990;7.370;2024-03-17T12:18:41;11.30;;;9.50;;
22378;SDS011;11357;49.990;7.370;2024-03-17T12:21:13;11.57;;;7.77;;
22378;SDS011;11357;49.990;7.370;2024-03-17T12:23:39;9.33;;;8.33;;
22378;SDS011;11357;49.990;7.370;2024-03-17T12:26:05;10.27;;;9.20;;
22378;SDS011;11357;49.990;7.370;2024-03-17T12:28:41;11.90;;;10.70;;
22378;SDS011;11357;49.990;7.370;2024-03-17T12:31:11;13.60;;;12.33;;
22378;SDS011;11357;49.990;7.370;2024-03-17T12:33:43;8.80;;;7.80;;
22378;SDS011;11357;49.990;7.370;2024-03-17T12:36:10;14.27;;;13.10;;
22378;SDS011;11357;49.990;7.370;2024-03-17T12:38:38;11.07;;;10.10;;
22378;SDS011;11357;49.990;7.370;2024-03-17T12:41:04;8.03;;;6.53;;
22378;SDS011;11357;49.990;7.370;2024-03-17T12:47:02;8.33;;;7.43;;
22378;SDS011;11357;49.990;7.370;2024-03-17T12:49:30;9.27;;;7.63;;
22378;SDS011;11357;49.990;7.370;2024-03-17T12:51:59;8.13;;;7.33;;
22378;SDS011;11357;49.990;7.370;2024-03-17T12:54:28;8.27;;;7.00;;
22378;SDS011;11357;49.990;7.370;2024-03-17T12:57:04;11.00;;;9.90;;
22378;SDS011;11357;49.990;7.370;2024-03-17T12:59:49;10.70;;;9.63;;
22378;SDS011;11357;49.990;7.370;2024-03-17T13:02:44;33.57;;;31.17;;
22378;SDS011;11357;49.990;7.370;2024-03-17T13:05:14;12.37;;;10.77;;
22378;SDS011;11357;49.990;7.370;2024-03-17T13:07:45;100.77;;;93.13;;
22378;SDS011;11357;49.990;7.370;2024-03-17T13:10:14;20.87;;;19.00;;
22378;SDS011;11357;49.990;7.370;2024-03-17T13:12:42;97.53;;;88.23;;
22378;SDS011;11357;49.990;7.370;2024-03-17T13:15:09;21.20;;;19.60;;
22378;SDS011;11357;49.990;7.370;2024-03-17T13:17:40;20.07;;;18.77;;
22378;SDS011;11357;49.990;7.370;2024-03-17T13:20:13;16.20;;;15.03;;
22378;SDS011;11357;49.990;7.370;2024-03-17T13:22:43;117.23;;;108.93;;
22378;SDS011;11357;49.990;7.370;2024-03-17T13:25:13;28.57;;;26.63;;
22378;SDS011;11357;49.990;7.370;2024-03-17T13:27:44;10.13;;;8.30;;
22378;SDS011;11357;49.990;7.370;2024-03-17T13:30:11;12.07;;;9.87;;
22378;SDS011;11357;49.990;7.370;2024-03-17T13:32:38;12.50;;;11.47;;
22378;SDS011;11357;49.990;7.370;2024-03-17T13:35:05;14.87;;;13.63;;
22378;SDS011;11357;49.990;7.370;2024-03-17T13:37:33;16.97;;;15.53;;
22378;SDS011;11357;49.990;7.370;2024-03-17T13:40:00;11.67;;;10.77;;
22378;SDS011;11357;49.990;7.370;2024-03-17T13:42:28;74.13;;;69.30;;
22378;SDS011;11357;49.990;7.370;2024-03-17T13:44:54;11.53;;;10.33;;
22378;SDS011;11357;49.990;7.370;2024-03-17T13:47:19;55.33;;;52.03;;
22378;SDS011;11357;49.990;7.370;2024-03-17T13:49:45;363.60;;;321.83;;
22378;SDS011;11357;49.990;7.370;2024-03-17T14:00:04;23.40;;;21.70;;
22378;SDS011;11357;49.990;7.370;2024-03-17T14:21:12;6.13;;;5.53;;
22378;SDS011;11357;49.990;7.370;2024-03-17T14:29:43;8.27;;;5.87;;
22378;SDS011;11357;49.990;7.370;2024-03-17T14:34:46;10.60;;;5.53;;
22378;SDS011;11357;49.990;7.370;2024-03-17T14:37:12;6.97;;;5.37;;
22378;SDS011;11357;49.990;7.370;2024-03-17T14:39:39;8.27;;;5.70;;
22378;SDS011;11357;49.990;7.370;2024-03-17T14:44:46;7.47;;;6.13;;
22378;SDS011;11357;49.990;7.370;2024-03-17T14:47:12;28.83;;;26.80;;
22378;SDS011;11357;49.990;7.370;2024-03-17T14:49:38;147.13;;;137.40;;
22378;SDS011;11357;49.990;7.370;2024-03-17T15:07:57;6.50;;;4.53;;
22378;SDS011;11357;49.990;7.370;2024-03-17T15:10:23;9.03;;;5.63;;
22378;SDS011;11357;49.990;7.370;2024-03-17T16:10:06;1999.90;;;920.13;;
22378;SDS011;11357;49.990;7.370;2024-03-17T16:12:42;1999.90;;;872.83;;
22378;SDS011;11357;49.990;7.370;2024-03-17T16:15:08;1999.90;;;846.83;;
22378;SDS011;11357;49.990;7.370;2024-03-17T16:17:36;1999.90;;;838.23;;
22378;SDS011;11357;49.990;7.370;2024-03-17T16:20:04;1999.90;;;837.27;;
22378;SDS011;11357;49.990;7.370;2024-03-17T16:22:38;1999.90;;;847.57;;
22378;SDS011;11357;49.990;7.370;2024-03-17T16:25:04;1999.90;;;866.90;;
22378;SDS011;11357;49.990;7.370;2024-03-17T16:27:30;1999.90;;;916.00;;
22378;SDS011;11357;49.990;7.370;2024-03-17T16:29:57;1999.90;;;999.90;;
22378;SDS011;11357;49.990;7.370;2024-03-17T16:50:37;1999.90;;;999.90;;
22378;SDS011;11357;49.990;7.370;2024-03-17T16:53:03;1999.90;;;999.90;;
22378;SDS011;11357;49.990;7.370;2024-03-17T16:55:29;1999.90;;;999.90;;
22378;SDS011;11357;49.990;7.370;2024-03-17T16:57:55;1999.90;;;999.90;;
22378;SDS011;11357;49.990;7.370;2024-03-17T17:00:20;1999.90;;;999.90;;
22378;SDS011;11357;49.990;7.370;2024-03-17T17:08:28;1999.90;;;999.90;;
22378;SDS011;11357;49.990;7.370;2024-03-17T17:10:56;1999.90;;;999.90;;
22378;SDS011;11357;49.990;7.370;2024-03-17T17:13:22;1999.90;;;999.90;;
22378;SDS011;11357;49.990;7.370;2024-03-17T17:15:53;1999.90;;;999.90;;
22378;SDS011;11357;49.990;7.370;2024-03-17T17:21:18;1999.90;;;999.90;;
22378;SDS011;11357;49.990;7.370;2024-03-17T18:49:42;1052.93;;;304.67;;
22378;SDS011;11357;49.990;7.370;2024-03-17T19:41:30;881.73;;;227.23;;
22378;SDS011;11357;49.990;7.370;2024-03-17T20:07:14;973.20;;;260.17;;
22378;SDS011;11357;49.990;7.370;2024-03-17T20:09:41;865.93;;;212.87;;
22378;SDS011;11357;49.990;7.370;2024-03-17T20:27:45;713.63;;;213.60;;
22378;SDS011;11357;49.990;7.370;2024-03-17T20:30:10;678.93;;;202.97;;
22378;SDS011;11357;49.990;7.370;2024-03-17T20:32:36;732.90;;;202.83;;
22378;SDS011;11357;49.990;7.370;2024-03-17T20:35:02;889.80;;;209.47;;
22378;SDS011;11357;49.990;7.370;2024-03-17T20:37:28;707.37;;;197.53;;
22378;SDS011;11357;49.990;7.370;2024-03-17T20:39:53;910.17;;;225.13;;
22378;SDS011;11357;49.990;7.370;2024-03-17T20:42:20;603.30;;;176.70;;
22378;SDS011;11357;49.990;7.370;2024-03-17T20:44:46;891.27;;;177.60;;
22378;SDS011;11357;49.990;7.370;2024-03-17T20:47:12;491.40;;;153.47;;
22378;SDS011;11357;49.990;7.370;2024-03-17T20:49:39;573.50;;;194.77;;
22378;SDS011;11357;49.990;7.370;2024-03-17T20:57:17;780.93;;;202.87;;
22378;SDS011;11357;49.990;7.370;2024-03-17T21:00:19;840.63;;;223.73;;
22378;SDS011;11357;49.990;7.370;2024-03-17T21:08:27;894.97;;;241.13;;
22378;SDS011;11357;49.990;7.370;2024-03-17T21:10:57;471.33;;;154.90;;
22378;SDS011;11357;49.990;7.370;2024-03-17T21:13:24;518.27;;;171.23;;
22378;SDS011;11357;49.990;7.370;2024-03-17T21:15:50;440.07;;;147.60;;
22378;SDS011;11357;49.990;7.370;2024-03-17T21:18:16;534.27;;;148.30;;
22378;SDS011;11357;49.990;7.370;2024-03-17T21:20:44;582.93;;;181.40;;
22378;SDS011;11357;49.990;7.370;2024-03-17T21:23:25;566.37;;;161.07;;
22378;SDS011;11357;49.990;7.370;2024-03-17T21:25:50;718.87;;;199.57;;
22378;SDS011;11357;49.990;7.370;2024-03-17T21:28:16;529.87;;;167.13;;
22378;SDS011;11357;49.990;7.370;2024-03-17T21:30:43;690.87;;;172.13;;
22378;SDS011;11357;49.990;7.370;2024-03-17T21:35:50;724.30;;;158.87;;
22378;SDS011;11357;49.990;7.370;2024-03-17T21:38:18;532.37;;;149.03;;
22378;SDS011;11357;49.990;7.370;2024-03-17T21:40:44;570.80;;;123.90;;
22378;SDS011;11357;49.990;7.370;2024-03-17T21:46:00;416.67;;;110.53;;
22378;SDS011;11357;49.990;7.370;2024-03-17T21:48:25;384.07;;;113.23;;
22378;SDS011;11357;49.990;7.370;2024-03-17T21:50:55;448.00;;;115.33;;
22378;SDS011;11357;49.990;7.370;2024-03-17T21:53:21;427.47;;;112.00;;
22378;SDS011;11357;49.990;7.370;2024-03-17T21:55:53;425.90;;;107.13;;
22378;SDS011;11357;49.990;7.370;2024-03-17T21:58:26;323.47;;;91.53;;
22378;SDS011;11357;49.990;7.370;2024-03-17T22:00:52;446.87;;;106.57;;
22378;SDS011;11357;49.990;7.370;2024-03-17T22:40:28;299.27;;;80.53;;
22378;SDS011;11357;49.990;7.370;2024-03-17T22:43:00;299.60;;;63.33;;
22378;SDS011;11357;49.990;7.370;2024-03-17T22:45:26;242.60;;;57.53;;
22378;SDS011;11357;49.990;7.370;2024-03-17T22:47:51;193.50;;;46.00;;
22378;SDS011;11357;49.990;7.370;2024-03-17T22:50:17;336.37;;;59.60;;
